createdAt,value
2022-11-16T00:00:51.020Z,42.63
2022-11-16T00:03:41.275Z,54.97
2022-11-16T00:06:31.597Z,54.55
2022-11-16T00:09:23.977Z,53.65
2022-11-16T00:12:13.384Z,55.55
2022-11-16T00:15:02.824Z,54.17
2022-11-16T00:17:53.742Z,52.63
2022-11-16T00:20:43.194Z,52.47
2022-11-16T00:23:32.897Z,53.25
2022-11-16T00:26:23.166Z,51.78
2022-11-16T00:29:16.621Z,52.78
2022-11-16T00:32:06.875Z,50.28
2022-11-16T00:34:57.804Z,50.60
2022-11-16T00:37:48.433Z,50.15
2022-11-16T00:40:38.050Z,51.45
2022-11-16T00:43:28.914Z,49.20
2022-11-16T00:46:18.518Z,50.08
2022-11-16T00:49:08.252Z,46.83
2022-11-16T00:51:59.203Z,44.85
2022-11-16T00:54:49.124Z,45.15
2022-11-16T00:57:38.565Z,46.20
2022-11-16T01:00:28.107Z,45.22
2022-11-16T01:03:17.672Z,44.20
2022-11-16T01:06:15.028Z,47.78
2022-11-16T01:09:05.932Z,41.72
2022-11-16T01:12:10.645Z,42.85
2022-11-16T01:15:00.149Z,42.05
2022-11-16T01:17:50.102Z,47.60
2022-11-16T01:20:42.536Z,38.03
2022-11-16T01:23:31.724Z,38.33
2022-11-16T01:26:22.514Z,39.28
2022-11-16T01:29:11.858Z,38.13
2022-11-16T01:32:06.584Z,38.83
2022-11-16T01:34:56.475Z,42.55
2022-11-16T01:40:39.808Z,35.95
2022-11-16T01:43:30.615Z,45.08
2022-11-16T01:46:26.698Z,44.13
2022-11-16T01:49:20.550Z,41.58
2022-11-16T01:52:18.026Z,40.40
2022-11-16T01:55:09.040Z,40.90
2022-11-16T01:58:18.642Z,38.80
2022-11-16T02:01:12.699Z,40.88
2022-11-16T02:04:12.290Z,39.95
2022-11-16T02:07:18.129Z,43.75
2022-11-16T02:10:20.651Z,45.23
2022-11-16T02:13:29.527Z,42.13
2022-11-16T02:16:34.579Z,43.67
2022-11-16T02:20:14.925Z,41.83
2022-11-16T02:23:53.150Z,39.28
2022-11-16T02:27:31.739Z,39.70
2022-11-16T02:30:23.622Z,39.05
2022-11-16T02:33:18.201Z,42.97
2022-11-16T02:36:13.144Z,40.28
2022-11-16T02:39:08.226Z,42.03
2022-11-16T02:42:00.828Z,39.60
2022-11-16T02:44:55.546Z,41.15
2022-11-16T02:47:48.232Z,38.67
2022-11-16T02:50:40.380Z,37.83
2022-11-16T02:53:33.738Z,42.55
2022-11-16T02:56:24.494Z,42.60
2022-11-16T02:59:17.797Z,41.90
2022-11-16T03:02:26.070Z,42.28
2022-11-16T03:05:32.133Z,41.17
2022-11-16T03:08:31.905Z,38.10
2022-11-16T03:11:42.406Z,39.15
2022-11-16T03:14:40.020Z,40.45
2022-11-16T03:17:33.972Z,40.35
2022-11-16T03:20:29.312Z,37.85
2022-11-16T03:23:18.913Z,36.08
2022-11-16T03:26:13.223Z,37.70
2022-11-16T03:29:09.736Z,36.13
2022-11-16T03:32:10.135Z,37.92
2022-11-16T03:35:07.990Z,35.72
2022-11-16T03:38:01.938Z,36.45
2022-11-16T03:40:52.576Z,34.95
2022-11-16T03:43:44.886Z,35.20
2022-11-16T03:46:35.706Z,35.88
2022-11-16T03:49:25.690Z,34.47
2022-11-16T03:52:18.511Z,34.20
2022-11-16T03:55:11.368Z,35.47
2022-11-16T03:58:01.309Z,31.83
2022-11-16T04:00:50.831Z,32.75
2022-11-16T04:03:40.167Z,32.80
2022-11-16T04:06:49.429Z,31.90
2022-11-16T04:09:55.936Z,30.90
2022-11-16T04:13:05.202Z,27.92
2022-11-16T04:16:12.360Z,28.42
2022-11-16T04:19:19.419Z,27.48
2022-11-16T04:22:35.012Z,27.48
2022-11-16T04:25:28.622Z,24.00
2022-11-16T04:28:21.945Z,23.05
2022-11-16T04:31:35.749Z,22.40
2022-11-16T04:34:47.177Z,24.20
2022-11-16T04:37:56.423Z,24.95
2022-11-16T04:40:53.147Z,22.40
2022-11-16T04:43:45.784Z,24.10
2022-11-16T04:46:52.357Z,23.40
2022-11-16T04:49:41.804Z,22.75
2022-11-16T04:52:31.430Z,25.60
2022-11-16T04:55:21.310Z,23.80
2022-11-16T04:58:12.779Z,22.30
2022-11-16T05:01:03.852Z,21.38
2022-11-16T05:03:53.546Z,23.67
2022-11-16T05:06:43.001Z,22.50
2022-11-16T05:09:32.403Z,23.65
2022-11-16T05:12:24.577Z,21.50
2022-11-16T05:15:19.924Z,18.67
2022-11-16T05:18:11.973Z,18.50
2022-11-16T05:21:02.848Z,16.58
2022-11-16T05:24:15.138Z,16.73
2022-11-16T05:27:06.694Z,17.48
2022-11-16T05:29:56.311Z,17.63
2022-11-16T05:32:46.729Z,17.88
2022-11-16T05:35:39.525Z,18.98
2022-11-16T05:38:29.226Z,18.92
2022-11-16T05:41:21.435Z,17.23
2022-11-16T05:44:11.123Z,17.85
2022-11-16T05:47:01.388Z,17.67
2022-11-16T05:49:51.237Z,18.33
2022-11-16T05:55:36.269Z,18.10
2022-11-16T05:58:25.754Z,19.52
2022-11-16T06:01:15.965Z,21.30
2022-11-16T06:04:05.299Z,20.48
2022-11-16T06:06:55.390Z,20.73
2022-11-16T06:09:52.000Z,20.27
2022-11-16T06:12:43.999Z,23.02
2022-11-16T06:15:33.263Z,16.90
2022-11-16T06:18:23.316Z,18.70
2022-11-16T06:21:14.389Z,18.85
2022-11-16T06:24:09.001Z,20.42
2022-11-16T06:27:00.553Z,19.35
2022-11-16T06:29:50.244Z,20.50
2022-11-16T06:32:40.126Z,17.20
2022-11-16T06:35:30.806Z,18.75
2022-11-16T06:38:20.800Z,16.85
2022-11-16T06:41:12.349Z,17.40
2022-11-16T06:44:08.325Z,18.38
2022-11-16T06:47:00.768Z,17.80
2022-11-16T06:49:50.538Z,19.17
2022-11-16T06:52:43.958Z,18.52
2022-11-16T06:55:33.895Z,18.98
2022-11-16T06:58:25.833Z,19.58
2022-11-16T07:01:16.562Z,19.02
2022-11-16T07:04:12.016Z,19.30
2022-11-16T07:07:03.823Z,20.73
2022-11-16T07:09:55.227Z,19.42
2022-11-16T07:12:44.654Z,19.08
2022-11-16T07:15:36.196Z,19.02
2022-11-16T07:18:27.244Z,17.73
2022-11-16T07:21:18.613Z,19.40
2022-11-16T07:24:08.536Z,18.85
2022-11-16T07:26:58.501Z,19.80
2022-11-16T07:29:51.020Z,18.08
2022-11-16T07:33:00.957Z,19.38
2022-11-16T07:36:29.842Z,18.67
2022-11-16T07:39:21.930Z,19.90
2022-11-16T07:42:11.904Z,18.35
2022-11-16T07:45:27.428Z,19.20
2022-11-16T07:48:21.038Z,19.52
2022-11-16T07:51:38.562Z,18.77
2022-11-16T07:54:48.313Z,18.88
2022-11-16T07:57:38.395Z,18.88
2022-11-16T08:00:31.081Z,18.75
2022-11-16T08:03:30.167Z,18.75
2022-11-16T08:06:25.093Z,18.10
2022-11-16T08:09:17.268Z,17.95
2022-11-16T08:12:06.936Z,19.17
2022-11-16T08:14:56.956Z,19.77
2022-11-16T08:17:46.506Z,21.45
2022-11-16T08:20:36.701Z,19.40
2022-11-16T08:23:26.409Z,19.58
2022-11-16T08:26:19.396Z,20.15
2022-11-16T08:29:15.323Z,20.67
2022-11-16T08:32:10.259Z,20.92
2022-11-16T08:34:59.751Z,20.15
2022-11-16T08:37:49.103Z,21.92
2022-11-16T08:40:38.707Z,20.80
2022-11-16T08:43:30.481Z,19.00
2022-11-16T08:46:19.942Z,20.30
2022-11-16T08:49:14.243Z,19.30
2022-11-16T08:52:03.854Z,20.02
2022-11-16T08:54:54.439Z,19.70
2022-11-16T08:57:44.120Z,19.27
2022-11-16T09:00:37.177Z,21.25
2022-11-16T09:03:26.544Z,23.00
2022-11-16T09:06:16.618Z,19.17
2022-11-16T09:09:06.414Z,18.98
2022-11-16T09:11:57.163Z,19.02
2022-11-16T09:14:46.454Z,20.45
2022-11-16T09:17:37.164Z,18.73
2022-11-16T09:20:27.468Z,18.02
2022-11-16T09:23:20.929Z,17.20
2022-11-16T09:26:14.702Z,17.20
2022-11-16T09:29:04.704Z,16.98
2022-11-16T09:31:53.924Z,17.10
2022-11-16T09:34:44.659Z,18.90
2022-11-16T09:37:33.950Z,19.48
2022-11-16T09:40:23.802Z,17.23
2022-11-16T09:43:28.299Z,18.20
2022-11-16T09:46:28.032Z,19.25
2022-11-16T09:49:22.626Z,19.17
2022-11-16T09:52:23.542Z,18.27
2022-11-16T09:55:26.137Z,16.17
2022-11-16T09:58:21.333Z,16.67
2022-11-16T10:01:26.274Z,18.58
2022-11-16T10:04:21.576Z,17.17
2022-11-16T10:07:17.972Z,16.33
2022-11-16T10:10:15.628Z,16.33
2022-11-16T10:13:16.110Z,16.95
2022-11-16T10:16:14.806Z,18.63
2022-11-16T10:19:16.545Z,16.98
2022-11-16T10:22:19.869Z,15.75
2022-11-16T10:25:17.444Z,16.98
2022-11-16T10:28:28.807Z,16.80
2022-11-16T10:31:30.842Z,19.80
2022-11-16T10:34:26.393Z,17.67
2022-11-16T10:37:16.127Z,17.25
2022-11-16T10:40:22.302Z,18.02
2022-11-16T10:43:16.551Z,17.55
2022-11-16T10:46:15.619Z,16.17
2022-11-16T10:49:12.111Z,16.45
2022-11-16T10:52:01.534Z,17.35
2022-11-16T10:54:51.315Z,15.38
2022-11-16T11:00:45.575Z,19.08
2022-11-16T11:03:35.464Z,19.85
2022-11-16T11:06:27.845Z,18.95
2022-11-16T11:09:29.696Z,20.35
2022-11-16T11:12:41.883Z,20.70
2022-11-16T11:15:31.506Z,16.90
2022-11-16T11:18:30.208Z,21.65
2022-11-16T11:21:24.251Z,31.60
2022-11-16T11:24:43.452Z,43.25
2022-11-16T11:27:35.056Z,48.72
2022-11-16T11:30:25.129Z,46.28
2022-11-16T11:33:17.257Z,53.53
2022-11-16T11:36:14.150Z,57.88
2022-11-16T11:39:08.106Z,66.05
2022-11-16T11:42:22.228Z,88.10
2022-11-16T11:45:16.663Z,67.78
2022-11-16T11:48:22.548Z,63.33
2022-11-16T11:51:23.354Z,36.30
2022-11-16T11:54:24.222Z,34.33
2022-11-16T11:57:20.621Z,23.58
2022-11-16T12:00:14.789Z,37.80
2022-11-16T12:03:41.196Z,43.80
2022-11-16T12:06:43.749Z,47.88
2022-11-16T12:09:44.321Z,55.75
2022-11-16T12:12:52.691Z,52.05
2022-11-16T12:16:00.247Z,52.85
2022-11-16T12:19:21.177Z,52.42
2022-11-16T12:22:31.266Z,45.33
2022-11-16T12:25:27.510Z,35.95
2022-11-16T12:28:35.244Z,30.05
2022-11-16T12:31:54.279Z,27.10
2022-11-16T12:35:02.285Z,27.27
2022-11-16T12:38:05.137Z,37.78
2022-11-16T12:41:34.214Z,42.33
2022-11-16T12:44:38.915Z,36.95
2022-11-16T12:47:44.425Z,39.97
2022-11-16T12:50:52.903Z,42.47
2022-11-16T12:54:06.275Z,39.88
2022-11-16T12:57:08.456Z,38.40
2022-11-16T13:00:09.182Z,37.38
2022-11-16T13:03:15.397Z,36.28
2022-11-16T13:06:08.778Z,44.28
2022-11-16T13:09:07.984Z,38.88
2022-11-16T13:12:01.915Z,33.75
2022-11-16T13:14:54.985Z,34.65
2022-11-16T13:20:46.276Z,28.00
2022-11-16T13:23:48.931Z,40.15
2022-11-16T13:26:46.166Z,33.60
2022-11-16T13:29:44.487Z,31.08
2022-11-16T13:32:57.432Z,30.80
2022-11-16T13:35:46.820Z,32.17
2022-11-16T13:38:53.471Z,35.38
2022-11-16T13:41:45.644Z,26.25
2022-11-16T13:44:35.967Z,27.77
2022-11-16T13:47:30.514Z,24.20
2022-11-16T13:50:23.081Z,25.58
2022-11-16T13:56:52.713Z,19.50
2022-11-16T13:59:42.386Z,24.20
2022-11-16T14:02:34.247Z,24.67
2022-11-16T14:05:41.782Z,22.17
2022-11-16T14:08:51.012Z,20.95
2022-11-16T14:11:41.575Z,29.23
2022-11-16T14:15:13.969Z,25.30
2022-11-16T14:18:33.027Z,26.17
2022-11-16T14:21:40.546Z,24.23
2022-11-16T14:24:35.124Z,18.85
2022-11-16T14:27:31.879Z,19.13
2022-11-16T14:30:26.509Z,26.27
2022-11-16T14:33:35.081Z,23.05
2022-11-16T14:36:41.404Z,19.95
2022-11-16T14:39:41.330Z,19.77
2022-11-16T14:42:48.141Z,18.55
2022-11-16T14:45:50.362Z,17.88
2022-11-16T14:48:47.156Z,16.73
2022-11-16T14:51:40.833Z,20.13
2022-11-16T14:54:39.279Z,19.17
2022-11-16T14:57:28.664Z,15.45
2022-11-16T15:00:25.906Z,13.18
2022-11-16T15:03:16.632Z,16.80
2022-11-16T15:06:08.846Z,14.32
2022-11-16T15:09:03.455Z,20.73
2022-11-16T15:12:10.960Z,13.23
2022-11-16T15:15:07.927Z,28.52
2022-11-16T15:18:13.207Z,27.98
2022-11-16T15:21:03.958Z,24.80
2022-11-16T15:24:23.631Z,24.02
2022-11-16T15:27:13.947Z,24.50
2022-11-16T15:30:15.046Z,26.02
2022-11-16T15:33:11.503Z,33.22
2022-11-16T15:36:01.083Z,28.50
2022-11-16T15:38:54.404Z,30.48
2022-11-16T15:41:44.205Z,32.10
2022-11-16T15:44:34.397Z,34.05
2022-11-16T15:47:25.621Z,37.30
2022-11-16T15:50:19.597Z,35.00
2022-11-16T15:53:36.795Z,32.42
2022-11-16T15:56:34.069Z,28.55
2022-11-16T15:59:29.265Z,26.50
2022-11-16T16:02:22.100Z,27.70
2022-11-16T16:05:23.997Z,26.73
2022-11-16T16:08:33.429Z,23.65
2022-11-16T16:11:30.921Z,17.70
2022-11-16T16:14:27.811Z,14.77
2022-11-16T16:17:26.158Z,18.90
2022-11-16T16:20:19.966Z,17.95
2022-11-16T16:23:15.358Z,19.80
2022-11-16T16:26:05.551Z,28.90
2022-11-16T16:28:56.878Z,42.20
2022-11-16T16:31:46.432Z,19.90
2022-11-16T16:34:39.258Z,23.98
2022-11-16T16:37:33.481Z,23.73
2022-11-16T16:40:22.988Z,23.70
2022-11-16T16:43:12.420Z,30.52
2022-11-16T16:46:05.153Z,26.05
2022-11-16T16:48:54.995Z,32.10
2022-11-16T16:51:44.391Z,39.78
2022-11-16T16:54:33.706Z,34.92
2022-11-16T16:57:23.116Z,29.60
2022-11-16T17:00:14.047Z,30.48
2022-11-16T17:03:04.927Z,29.67
2022-11-16T17:05:54.595Z,31.38
2022-11-16T17:08:43.808Z,63.75
2022-11-16T17:11:33.129Z,65.35
2022-11-16T17:14:24.614Z,46.47
2022-11-16T17:17:14.199Z,44.00
2022-11-16T17:20:06.225Z,43.65
2022-11-16T17:22:55.605Z,47.00
2022-11-16T17:25:45.207Z,50.05
2022-11-16T17:28:35.298Z,55.55
2022-11-16T17:31:25.725Z,45.97
2022-11-16T17:34:15.401Z,43.90
2022-11-16T17:37:06.252Z,44.25
2022-11-16T17:39:55.604Z,45.28
2022-11-16T17:42:45.246Z,47.95
2022-11-16T17:45:34.529Z,53.90
2022-11-16T17:48:23.803Z,72.45
2022-11-16T17:51:14.967Z,71.18
2022-11-16T17:54:06.101Z,71.30
2022-11-16T17:56:55.362Z,59.58
2022-11-16T17:59:44.755Z,74.38
2022-11-16T18:02:34.036Z,62.75
2022-11-16T18:05:23.416Z,56.45
2022-11-16T18:08:13.533Z,52.80
2022-11-16T18:11:19.683Z,60.72
2022-11-16T18:14:10.648Z,57.35
2022-11-16T18:17:00.074Z,55.58
2022-11-16T18:19:49.387Z,52.83
2022-11-16T18:22:39.030Z,59.85
2022-11-16T18:25:28.443Z,58.90
2022-11-16T18:28:20.658Z,60.80
2022-11-16T18:31:13.303Z,63.13
2022-11-16T18:34:03.179Z,60.90
2022-11-16T18:36:52.548Z,60.58
2022-11-16T18:39:41.882Z,61.20
2022-11-16T18:42:31.778Z,60.65
2022-11-16T18:45:22.785Z,66.53
2022-11-16T18:48:12.118Z,66.80
2022-11-16T18:51:01.964Z,64.40
2022-11-16T18:53:51.893Z,65.18
2022-11-16T18:56:41.383Z,81.63
2022-11-16T18:59:30.685Z,101.38
2022-11-16T19:02:21.678Z,117.72
2022-11-16T19:05:11.223Z,116.05
2022-11-16T19:08:00.534Z,113.85
2022-11-16T19:10:50.213Z,113.47
2022-11-16T19:13:40.807Z,99.35
2022-11-16T19:16:30.878Z,90.03
2022-11-16T19:19:21.812Z,90.80
2022-11-16T19:22:11.147Z,93.85
2022-11-16T19:25:05.873Z,97.97
2022-11-16T19:27:55.568Z,108.20
2022-11-16T19:30:44.922Z,111.85
2022-11-16T19:33:34.488Z,104.70
2022-11-16T19:36:26.694Z,111.60
2022-11-16T19:39:16.066Z,114.85
2022-11-16T19:42:05.988Z,121.43
2022-11-16T19:44:55.305Z,117.43
2022-11-16T19:47:44.754Z,122.95
2022-11-16T19:50:35.889Z,114.53
2022-11-16T19:53:26.990Z,115.55
2022-11-16T19:56:18.785Z,114.45
2022-11-16T19:59:08.164Z,111.00
2022-11-16T20:01:57.789Z,97.68
2022-11-16T20:04:47.134Z,93.28
2022-11-16T20:07:38.972Z,96.80
2022-11-16T20:10:32.387Z,101.32
2022-11-16T20:13:22.138Z,103.70
2022-11-16T20:16:14.346Z,101.95
2022-11-16T20:19:04.421Z,102.97
2022-11-16T20:21:55.440Z,101.57
2022-11-16T20:24:45.033Z,104.78
2022-11-16T20:27:36.073Z,104.38
2022-11-16T20:30:25.421Z,112.47
2022-11-16T20:33:15.092Z,105.43
2022-11-16T20:36:05.939Z,109.10
2022-11-16T20:38:55.985Z,101.43
2022-11-16T20:41:45.603Z,98.32
2022-11-16T20:44:36.621Z,103.43
2022-11-16T20:47:28.236Z,108.60
2022-11-16T20:50:19.530Z,95.88
2022-11-16T20:53:08.979Z,86.05
2022-11-16T20:55:59.594Z,62.28
2022-11-16T20:58:51.302Z,71.15
2022-11-16T21:01:47.858Z,74.93
2022-11-16T21:04:38.658Z,71.72
2022-11-16T21:07:30.853Z,80.85
2022-11-16T21:10:21.502Z,81.10
2022-11-16T21:13:35.533Z,93.57
2022-11-16T21:16:25.565Z,94.70
2022-11-16T21:19:17.292Z,101.43
2022-11-16T21:22:07.888Z,105.30
2022-11-16T21:24:57.912Z,105.32
2022-11-16T21:27:47.530Z,101.95
2022-11-16T21:30:41.050Z,97.65
2022-11-16T21:33:32.796Z,89.00
2022-11-16T21:36:26.491Z,90.13
2022-11-16T21:39:16.039Z,99.40
2022-11-16T21:42:06.911Z,99.35
2022-11-16T21:44:56.683Z,100.63
2022-11-16T21:47:46.460Z,97.03
2022-11-16T21:50:36.864Z,100.22
2022-11-16T21:53:27.703Z,104.00
2022-11-16T21:56:20.322Z,108.65
2022-11-16T21:59:10.035Z,104.65
2022-11-16T22:02:02.325Z,108.30
2022-11-16T22:05:09.346Z,109.47
2022-11-16T22:07:58.590Z,110.45
2022-11-16T22:10:52.635Z,103.22
2022-11-16T22:13:43.165Z,95.70
2022-11-16T22:16:32.544Z,87.88
2022-11-16T22:19:22.276Z,85.32
2022-11-16T22:22:11.695Z,92.50
2022-11-16T22:25:01.329Z,93.38
2022-11-16T22:28:19.065Z,94.80
2022-11-16T22:31:03.192Z,96.35
2022-11-16T22:33:54.725Z,82.32
2022-11-16T22:36:43.972Z,82.40
2022-11-16T22:39:33.568Z,79.32
2022-11-16T22:42:23.248Z,76.43
2022-11-16T22:45:14.728Z,72.15
2022-11-16T22:48:04.059Z,67.97
2022-11-16T22:51:05.180Z,66.78
2022-11-16T22:53:55.739Z,72.90
2022-11-16T22:56:45.377Z,83.18
2022-11-16T22:59:35.215Z,92.15
2022-11-16T23:02:26.247Z,94.53
2022-11-16T23:05:16.334Z,88.10
2022-11-16T23:08:06.410Z,83.47
2022-11-16T23:11:18.761Z,75.10
2022-11-16T23:14:31.256Z,67.97
2022-11-16T23:17:20.772Z,62.45
2022-11-16T23:20:30.379Z,65.15
2022-11-16T23:23:38.252Z,70.63
2022-11-16T23:26:45.119Z,73.88
2022-11-16T23:29:34.701Z,78.18
2022-11-16T23:32:24.215Z,66.72
2022-11-16T23:35:15.572Z,55.92
2022-11-16T23:38:07.562Z,56.85
2022-11-16T23:40:58.627Z,51.03
2022-11-16T23:43:59.819Z,51.65
2022-11-16T23:46:49.382Z,52.65
2022-11-16T23:49:39.317Z,52.63
2022-11-16T23:52:30.362Z,52.17
2022-11-16T23:55:19.863Z,52.30
2022-11-16T23:58:14.713Z,49.33
